Terminal Aerodrome Forecast
Issued by NWS Blacksburg, VA

Current Version | Previous Version | Graphics & Text | Print | Product List | Glossary On
Versions: 1 2 3 4 5 6 7 8 9 10 11 12 13 14 15 16 17
000
FTUS41 KRNK 151725
TAFBLF
TAF
KBLF 151725Z 1518/1618 17005KT P6SM SCT040
     FM160200 25006KT P6SM VCSH BKN040
      TEMPO 1602/1604 4SM -SHRA OVC020
     FM160600 26007KT P6SM BKN015
     FM160800 27008KT P6SM BKN008=

USA.gov is the U.S. government's official web portal to all federal, state and local government web resources and services.